sensor_id;sensor_type;location;lat;lon;timestamp;P1;durP1;ratioP1;P2;durP2;ratioP2
45887;SDS011;31595;51.418;7.572;2023-07-20T00:00:45;16.15;;;10.32;;
45887;SDS011;31595;51.418;7.572;2023-07-20T00:03:14;11.80;;;9.45;;
45887;SDS011;31595;51.418;7.572;2023-07-20T00:05:44;14.13;;;10.52;;
45887;SDS011;31595;51.418;7.572;2023-07-20T00:08:11;12.27;;;9.82;;
45887;SDS011;31595;51.418;7.572;2023-07-20T00:10:38;11.77;;;10.52;;
45887;SDS011;31595;51.418;7.572;2023-07-20T00:13:04;9.88;;;8.43;;
45887;SDS011;31595;51.418;7.572;2023-07-20T00:15:31;13.60;;;10.07;;
45887;SDS011;31595;51.418;7.572;2023-07-20T00:17:58;11.63;;;9.70;;
45887;SDS011;31595;51.418;7.572;2023-07-20T00:20:26;14.82;;;9.40;;
45887;SDS011;31595;51.418;7.572;2023-07-20T00:22:53;13.00;;;9.95;;
45887;SDS011;31595;51.418;7.572;2023-07-20T00:25:20;14.00;;;10.02;;
45887;SDS011;31595;51.418;7.572;2023-07-20T00:27:47;11.93;;;9.38;;
45887;SDS011;31595;51.418;7.572;2023-07-20T00:30:14;12.60;;;10.25;;
45887;SDS011;31595;51.418;7.572;2023-07-20T00:32:41;17.00;;;10.68;;
45887;SDS011;31595;51.418;7.572;2023-07-20T00:35:08;11.35;;;10.00;;
45887;SDS011;31595;51.418;7.572;2023-07-20T00:37:36;10.77;;;8.98;;
45887;SDS011;31595;51.418;7.572;2023-07-20T00:40:03;12.73;;;9.02;;
45887;SDS011;31595;51.418;7.572;2023-07-20T00:42:32;16.17;;;10.13;;
45887;SDS011;31595;51.418;7.572;2023-07-20T00:44:59;11.88;;;8.68;;
45887;SDS011;31595;51.418;7.572;2023-07-20T00:47:26;13.05;;;9.60;;
45887;SDS011;31595;51.418;7.572;2023-07-20T00:49:53;15.98;;;9.80;;
45887;SDS011;31595;51.418;7.572;2023-07-20T00:52:20;14.38;;;10.10;;
45887;SDS011;31595;51.418;7.572;2023-07-20T00:54:50;12.30;;;9.45;;
45887;SDS011;31595;51.418;7.572;2023-07-20T00:57:17;16.73;;;10.13;;
45887;SDS011;31595;51.418;7.572;2023-07-20T00:59:45;14.15;;;8.50;;
45887;SDS011;31595;51.418;7.572;2023-07-20T01:02:11;11.30;;;8.77;;
45887;SDS011;31595;51.418;7.572;2023-07-20T01:04:38;15.25;;;9.68;;
45887;SDS011;31595;51.418;7.572;2023-07-20T01:07:08;13.52;;;8.60;;
45887;SDS011;31595;51.418;7.572;2023-07-20T01:09:37;11.73;;;8.43;;
45887;SDS011;31595;51.418;7.572;2023-07-20T01:12:08;13.50;;;10.00;;
45887;SDS011;31595;51.418;7.572;2023-07-20T01:14:36;13.25;;;9.18;;
45887;SDS011;31595;51.418;7.572;2023-07-20T01:17:04;14.77;;;9.77;;
45887;SDS011;31595;51.418;7.572;2023-07-20T01:19:30;14.18;;;9.18;;
45887;SDS011;31595;51.418;7.572;2023-07-20T01:21:59;12.50;;;9.05;;
45887;SDS011;31595;51.418;7.572;2023-07-20T01:24:42;11.90;;;9.13;;
45887;SDS011;31595;51.418;7.572;2023-07-20T01:30:00;16.67;;;11.13;;
45887;SDS011;31595;51.418;7.572;2023-07-20T01:32:31;13.60;;;10.38;;
45887;SDS011;31595;51.418;7.572;2023-07-20T01:34:58;13.85;;;8.75;;
45887;SDS011;31595;51.418;7.572;2023-07-20T01:37:26;12.35;;;8.85;;
45887;SDS011;31595;51.418;7.572;2023-07-20T01:39:55;13.65;;;10.00;;
45887;SDS011;31595;51.418;7.572;2023-07-20T01:42:22;12.20;;;8.25;;
45887;SDS011;31595;51.418;7.572;2023-07-20T01:44:50;12.70;;;8.98;;
45887;SDS011;31595;51.418;7.572;2023-07-20T01:47:17;12.43;;;9.98;;
45887;SDS011;31595;51.418;7.572;2023-07-20T01:49:45;12.82;;;9.13;;
45887;SDS011;31595;51.418;7.572;2023-07-20T01:52:12;13.55;;;10.80;;
45887;SDS011;31595;51.418;7.572;2023-07-20T01:54:38;12.88;;;11.00;;
45887;SDS011;31595;51.418;7.572;2023-07-20T01:57:05;12.95;;;9.68;;
45887;SDS011;31595;51.418;7.572;2023-07-20T01:59:32;13.98;;;10.30;;
45887;SDS011;31595;51.418;7.572;2023-07-20T02:01:59;11.75;;;9.52;;
45887;SDS011;31595;51.418;7.572;2023-07-20T02:04:26;12.02;;;9.52;;
45887;SDS011;31595;51.418;7.572;2023-07-20T02:06:54;13.40;;;10.23;;
45887;SDS011;31595;51.418;7.572;2023-07-20T02:09:21;11.73;;;9.05;;
45887;SDS011;31595;51.418;7.572;2023-07-20T02:11:48;14.95;;;9.85;;
45887;SDS011;31595;51.418;7.572;2023-07-20T02:14:15;13.43;;;10.48;;
45887;SDS011;31595;51.418;7.572;2023-07-20T02:16:42;12.07;;;10.10;;
45887;SDS011;31595;51.418;7.572;2023-07-20T02:19:09;15.40;;;11.13;;
45887;SDS011;31595;51.418;7.572;2023-07-20T02:21:36;14.50;;;10.50;;
45887;SDS011;31595;51.418;7.572;2023-07-20T02:24:05;14.05;;;10.75;;
45887;SDS011;31595;51.418;7.572;2023-07-20T02:26:32;15.05;;;10.25;;
45887;SDS011;31595;51.418;7.572;2023-07-20T02:28:59;15.02;;;11.48;;
45887;SDS011;31595;51.418;7.572;2023-07-20T02:31:26;14.95;;;10.77;;
45887;SDS011;31595;51.418;7.572;2023-07-20T02:33:53;15.77;;;11.75;;
45887;SDS011;31595;51.418;7.572;2023-07-20T02:36:19;19.02;;;11.90;;
45887;SDS011;31595;51.418;7.572;2023-07-20T02:38:46;15.05;;;11.10;;
45887;SDS011;31595;51.418;7.572;2023-07-20T02:41:14;14.60;;;11.57;;
45887;SDS011;31595;51.418;7.572;2023-07-20T02:43:41;13.98;;;11.55;;
45887;SDS011;31595;51.418;7.572;2023-07-20T02:46:07;14.25;;;11.02;;
45887;SDS011;31595;51.418;7.572;2023-07-20T02:48:34;13.68;;;11.02;;
45887;SDS011;31595;51.418;7.572;2023-07-20T02:51:01;13.50;;;11.93;;
45887;SDS011;31595;51.418;7.572;2023-07-20T02:53:27;18.40;;;12.63;;
45887;SDS011;31595;51.418;7.572;2023-07-20T02:55:54;13.52;;;11.70;;
45887;SDS011;31595;51.418;7.572;2023-07-20T02:58:22;14.25;;;10.93;;
45887;SDS011;31595;51.418;7.572;2023-07-20T03:00:49;13.35;;;11.25;;
45887;SDS011;31595;51.418;7.572;2023-07-20T03:03:16;13.00;;;10.32;;
45887;SDS011;31595;51.418;7.572;2023-07-20T03:05:43;12.68;;;10.23;;
45887;SDS011;31595;51.418;7.572;2023-07-20T03:08:10;11.20;;;9.63;;
45887;SDS011;31595;51.418;7.572;2023-07-20T03:10:39;12.57;;;9.30;;
45887;SDS011;31595;51.418;7.572;2023-07-20T03:13:07;12.63;;;10.90;;
45887;SDS011;31595;51.418;7.572;2023-07-20T03:15:35;15.25;;;9.57;;
45887;SDS011;31595;51.418;7.572;2023-07-20T03:18:02;11.40;;;9.32;;
45887;SDS011;31595;51.418;7.572;2023-07-20T03:20:29;13.32;;;10.32;;
45887;SDS011;31595;51.418;7.572;2023-07-20T03:22:56;16.35;;;11.63;;
45887;SDS011;31595;51.418;7.572;2023-07-20T03:25:23;14.10;;;12.00;;
45887;SDS011;31595;51.418;7.572;2023-07-20T03:27:50;13.23;;;10.10;;
45887;SDS011;31595;51.418;7.572;2023-07-20T03:30:16;14.85;;;11.05;;
45887;SDS011;31595;51.418;7.572;2023-07-20T03:32:45;14.18;;;10.32;;
45887;SDS011;31595;51.418;7.572;2023-07-20T03:35:11;13.05;;;9.90;;
45887;SDS011;31595;51.418;7.572;2023-07-20T03:37:38;15.02;;;11.95;;
45887;SDS011;31595;51.418;7.572;2023-07-20T03:40:05;11.90;;;9.00;;
45887;SDS011;31595;51.418;7.572;2023-07-20T03:42:33;15.77;;;9.60;;
45887;SDS011;31595;51.418;7.572;2023-07-20T03:45:00;10.63;;;8.30;;
45887;SDS011;31595;51.418;7.572;2023-07-20T03:47:28;11.13;;;8.75;;
45887;SDS011;31595;51.418;7.572;2023-07-20T03:49:56;9.50;;;6.82;;
45887;SDS011;31595;51.418;7.572;2023-07-20T03:52:23;8.18;;;6.32;;
45887;SDS011;31595;51.418;7.572;2023-07-20T03:54:50;10.88;;;7.47;;
45887;SDS011;31595;51.418;7.572;2023-07-20T03:57:17;8.68;;;7.18;;
45887;SDS011;31595;51.418;7.572;2023-07-20T03:59:44;10.00;;;7.97;;
45887;SDS011;31595;51.418;7.572;2023-07-20T04:02:11;8.70;;;6.80;;
45887;SDS011;31595;51.418;7.572;2023-07-20T04:04:38;9.27;;;7.43;;
45887;SDS011;31595;51.418;7.572;2023-07-20T04:07:06;10.50;;;8.35;;
45887;SDS011;31595;51.418;7.572;2023-07-20T04:09:33;10.40;;;8.23;;
45887;SDS011;31595;51.418;7.572;2023-07-20T04:12:00;9.45;;;6.93;;
45887;SDS011;31595;51.418;7.572;2023-07-20T04:14:27;8.85;;;7.68;;
45887;SDS011;31595;51.418;7.572;2023-07-20T04:16:54;11.57;;;7.40;;
45887;SDS011;31595;51.418;7.572;2023-07-20T04:19:20;10.65;;;8.60;;
45887;SDS011;31595;51.418;7.572;2023-07-20T04:21:47;10.00;;;8.45;;
45887;SDS011;31595;51.418;7.572;2023-07-20T04:24:15;12.18;;;9.93;;
45887;SDS011;31595;51.418;7.572;2023-07-20T04:26:42;14.25;;;11.52;;
45887;SDS011;31595;51.418;7.572;2023-07-20T04:29:09;12.98;;;9.88;;
45887;SDS011;31595;51.418;7.572;2023-07-20T04:31:36;12.02;;;9.85;;
45887;SDS011;31595;51.418;7.572;2023-07-20T04:34:02;12.70;;;11.40;;
45887;SDS011;31595;51.418;7.572;2023-07-20T04:36:29;16.33;;;13.07;;
45887;SDS011;31595;51.418;7.572;2023-07-20T04:38:56;15.48;;;12.95;;
45887;SDS011;31595;51.418;7.572;2023-07-20T04:41:24;16.40;;;12.65;;
45887;SDS011;31595;51.418;7.572;2023-07-20T04:43:51;15.10;;;12.90;;
45887;SDS011;31595;51.418;7.572;2023-07-20T04:46:18;14.48;;;13.02;;
45887;SDS011;31595;51.418;7.572;2023-07-20T04:48:46;16.45;;;14.77;;
45887;SDS011;31595;51.418;7.572;2023-07-20T04:51:13;17.70;;;15.82;;
45887;SDS011;31595;51.418;7.572;2023-07-20T04:53:40;17.52;;;13.65;;
45887;SDS011;31595;51.418;7.572;2023-07-20T04:56:07;16.65;;;14.63;;
45887;SDS011;31595;51.418;7.572;2023-07-20T04:58:35;18.95;;;15.48;;
45887;SDS011;31595;51.418;7.572;2023-07-20T05:01:02;19.05;;;17.02;;
45887;SDS011;31595;51.418;7.572;2023-07-20T05:03:29;18.92;;;16.40;;
45887;SDS011;31595;51.418;7.572;2023-07-20T05:05:56;18.42;;;16.45;;
45887;SDS011;31595;51.418;7.572;2023-07-20T05:08:23;19.95;;;17.85;;
45887;SDS011;31595;51.418;7.572;2023-07-20T05:10:50;19.80;;;17.73;;
45887;SDS011;31595;51.418;7.572;2023-07-20T05:13:17;20.45;;;18.27;;
45887;SDS011;31595;51.418;7.572;2023-07-20T05:15:45;21.73;;;17.95;;
45887;SDS011;31595;51.418;7.572;2023-07-20T05:18:12;25.17;;;21.88;;
45887;SDS011;31595;51.418;7.572;2023-07-20T05:20:39;19.60;;;17.60;;
45887;SDS011;31595;51.418;7.572;2023-07-20T05:23:05;22.17;;;19.92;;
45887;SDS011;31595;51.418;7.572;2023-07-20T05:25:32;19.52;;;17.52;;
45887;SDS011;31595;51.418;7.572;2023-07-20T05:27:59;18.33;;;16.42;;
45887;SDS011;31595;51.418;7.572;2023-07-20T05:30:26;19.38;;;17.55;;
45887;SDS011;31595;51.418;7.572;2023-07-20T05:32:55;20.15;;;18.08;;
45887;SDS011;31595;51.418;7.572;2023-07-20T05:35:22;18.80;;;16.55;;
45887;SDS011;31595;51.418;7.572;2023-07-20T05:37:49;17.58;;;15.68;;
45887;SDS011;31595;51.418;7.572;2023-07-20T05:40:16;18.98;;;17.08;;
45887;SDS011;31595;51.418;7.572;2023-07-20T05:42:45;18.07;;;16.00;;
45887;SDS011;31595;51.418;7.572;2023-07-20T05:45:13;18.55;;;16.75;;
45887;SDS011;31595;51.418;7.572;2023-07-20T05:47:41;16.83;;;15.13;;
45887;SDS011;31595;51.418;7.572;2023-07-20T05:50:09;17.50;;;15.70;;
45887;SDS011;31595;51.418;7.572;2023-07-20T05:52:36;15.52;;;13.93;;
45887;SDS011;31595;51.418;7.572;2023-07-20T05:55:04;11.85;;;10.77;;
45887;SDS011;31595;51.418;7.572;2023-07-20T05:57:33;11.38;;;10.02;;
45887;SDS011;31595;51.418;7.572;2023-07-20T06:00:00;9.52;;;8.52;;
45887;SDS011;31595;51.418;7.572;2023-07-20T06:02:28;10.45;;;9.32;;
45887;SDS011;31595;51.418;7.572;2023-07-20T06:04:55;10.18;;;8.65;;
45887;SDS011;31595;51.418;7.572;2023-07-20T06:07:23;10.38;;;9.32;;
45887;SDS011;31595;51.418;7.572;2023-07-20T06:09:50;10.13;;;9.15;;
45887;SDS011;31595;51.418;7.572;2023-07-20T06:12:17;8.90;;;8.10;;
45887;SDS011;31595;51.418;7.572;2023-07-20T06:14:43;7.82;;;7.13;;
45887;SDS011;31595;51.418;7.572;2023-07-20T06:17:10;7.78;;;6.93;;
45887;SDS011;31595;51.418;7.572;2023-07-20T06:19:37;7.10;;;6.28;;
45887;SDS011;31595;51.418;7.572;2023-07-20T06:22:04;6.70;;;5.68;;
45887;SDS011;31595;51.418;7.572;2023-07-20T06:24:32;6.28;;;5.68;;
45887;SDS011;31595;51.418;7.572;2023-07-20T06:26:59;5.75;;;5.15;;
45887;SDS011;31595;51.418;7.572;2023-07-20T06:29:26;6.55;;;5.40;;
45887;SDS011;31595;51.418;7.572;2023-07-20T06:31:53;5.28;;;4.78;;
45887;SDS011;31595;51.418;7.572;2023-07-20T06:34:20;6.50;;;4.43;;
45887;SDS011;31595;51.418;7.572;2023-07-20T06:36:46;5.13;;;4.63;;
45887;SDS011;31595;51.418;7.572;2023-07-20T06:39:13;6.03;;;5.45;;
45887;SDS011;31595;51.418;7.572;2023-07-20T06:41:42;7.13;;;6.43;;
45887;SDS011;31595;51.418;7.572;2023-07-20T06:44:09;6.45;;;5.85;;
45887;SDS011;31595;51.418;7.572;2023-07-20T06:46:36;5.93;;;5.40;;
45887;SDS011;31595;51.418;7.572;2023-07-20T06:49:05;5.32;;;4.82;;
45887;SDS011;31595;51.418;7.572;2023-07-20T06:51:32;4.25;;;3.83;;
45887;SDS011;31595;51.418;7.572;2023-07-20T06:53:59;4.25;;;3.60;;
45887;SDS011;31595;51.418;7.572;2023-07-20T06:56:25;4.85;;;3.55;;
45887;SDS011;31595;51.418;7.572;2023-07-20T06:58:54;5.80;;;4.15;;
45887;SDS011;31595;51.418;7.572;2023-07-20T07:01:20;4.28;;;3.88;;
45887;SDS011;31595;51.418;7.572;2023-07-20T07:03:48;4.75;;;4.25;;
45887;SDS011;31595;51.418;7.572;2023-07-20T07:06:14;4.95;;;4.20;;
45887;SDS011;31595;51.418;7.572;2023-07-20T07:08:41;4.43;;;3.97;;
45887;SDS011;31595;51.418;7.572;2023-07-20T07:11:10;4.85;;;3.90;;
45887;SDS011;31595;51.418;7.572;2023-07-20T07:13:37;5.05;;;4.40;;
45887;SDS011;31595;51.418;7.572;2023-07-20T07:16:05;5.88;;;4.07;;
45887;SDS011;31595;51.418;7.572;2023-07-20T07:18:32;4.05;;;3.65;;
45887;SDS011;31595;51.418;7.572;2023-07-20T07:20:58;6.65;;;3.60;;
45887;SDS011;31595;51.418;7.572;2023-07-20T07:23:25;5.20;;;3.33;;
45887;SDS011;31595;51.418;7.572;2023-07-20T07:25:52;3.75;;;2.67;;
45887;SDS011;31595;51.418;7.572;2023-07-20T07:28:19;3.08;;;2.78;;
45887;SDS011;31595;51.418;7.572;2023-07-20T07:30:45;2.75;;;2.55;;
45887;SDS011;31595;51.418;7.572;2023-07-20T07:33:14;3.35;;;2.35;;
45887;SDS011;31595;51.418;7.572;2023-07-20T07:35:41;3.50;;;2.40;;
45887;SDS011;31595;51.418;7.572;2023-07-20T07:38:07;2.45;;;2.10;;
45887;SDS011;31595;51.418;7.572;2023-07-20T07:40:34;2.53;;;2.20;;
45887;SDS011;31595;51.418;7.572;2023-07-20T07:43:01;3.78;;;2.40;;
45887;SDS011;31595;51.418;7.572;2023-07-20T07:45:28;3.42;;;2.80;;
45887;SDS011;31595;51.418;7.572;2023-07-20T07:47:55;3.17;;;2.60;;
45887;SDS011;31595;51.418;7.572;2023-07-20T07:50:23;3.30;;;3.00;;
45887;SDS011;31595;51.418;7.572;2023-07-20T07:52:50;3.78;;;2.90;;
45887;SDS011;31595;51.418;7.572;2023-07-20T07:55:17;3.22;;;2.65;;
45887;SDS011;31595;51.418;7.572;2023-07-20T07:57:44;3.78;;;2.65;;
45887;SDS011;31595;51.418;7.572;2023-07-20T08:00:13;3.22;;;2.50;;
45887;SDS011;31595;51.418;7.572;2023-07-20T08:02:41;2.72;;;2.35;;
45887;SDS011;31595;51.418;7.572;2023-07-20T08:05:08;3.67;;;2.97;;
45887;SDS011;31595;51.418;7.572;2023-07-20T08:07:36;3.30;;;3.00;;
45887;SDS011;31595;51.418;7.572;2023-07-20T08:10:03;3.03;;;2.72;;
45887;SDS011;31595;51.418;7.572;2023-07-20T08:12:30;3.55;;;3.00;;
45887;SDS011;31595;51.418;7.572;2023-07-20T08:14:57;4.00;;;3.20;;
45887;SDS011;31595;51.418;7.572;2023-07-20T08:17:24;3.40;;;3.10;;
45887;SDS011;31595;51.418;7.572;2023-07-20T08:19:51;4.15;;;3.72;;
45887;SDS011;31595;51.418;7.572;2023-07-20T08:22:17;5.07;;;3.47;;
45887;SDS011;31595;51.418;7.572;2023-07-20T08:24:46;4.10;;;3.53;;
45887;SDS011;31595;51.418;7.572;2023-07-20T08:27:13;4.10;;;3.70;;
45887;SDS011;31595;51.418;7.572;2023-07-20T08:29:39;3.97;;;3.58;;
45887;SDS011;31595;51.418;7.572;2023-07-20T08:32:06;4.05;;;3.00;;
45887;SDS011;31595;51.418;7.572;2023-07-20T08:34:33;3.05;;;2.50;;
45887;SDS011;31595;51.418;7.572;2023-07-20T08:37:00;3.42;;;2.50;;
45887;SDS011;31595;51.418;7.572;2023-07-20T08:39:27;3.17;;;2.22;;
45887;SDS011;31595;51.418;7.572;2023-07-20T08:41:55;1.77;;;1.48;;
45887;SDS011;31595;51.418;7.572;2023-07-20T08:44:24;2.15;;;1.20;;
45887;SDS011;31595;51.418;7.572;2023-07-20T08:46:51;2.78;;;1.02;;
45887;SDS011;31595;51.418;7.572;2023-07-20T08:49:18;2.33;;;1.10;;
45887;SDS011;31595;51.418;7.572;2023-07-20T08:51:45;2.33;;;1.10;;
45887;SDS011;31595;51.418;7.572;2023-07-20T08:54:12;2.42;;;1.00;;
45887;SDS011;31595;51.418;7.572;2023-07-20T08:56:39;2.05;;;0.88;;
45887;SDS011;31595;51.418;7.572;2023-07-20T08:59:08;2.08;;;1.20;;
45887;SDS011;31595;51.418;7.572;2023-07-20T09:01:36;1.95;;;1.45;;
45887;SDS011;31595;51.418;7.572;2023-07-20T09:04:04;3.17;;;1.30;;
45887;SDS011;31595;51.418;7.572;2023-07-20T09:06:31;3.60;;;1.70;;
45887;SDS011;31595;51.418;7.572;2023-07-20T09:09:00;4.30;;;1.42;;
45887;SDS011;31595;51.418;7.572;2023-07-20T09:11:27;2.63;;;1.50;;
45887;SDS011;31595;51.418;7.572;2023-07-20T09:14:02;2.40;;;1.40;;
45887;SDS011;31595;51.418;7.572;2023-07-20T09:16:30;1.63;;;1.20;;
45887;SDS011;31595;51.418;7.572;2023-07-20T09:18:57;2.10;;;1.35;;
45887;SDS011;31595;51.418;7.572;2023-07-20T09:21:25;1.90;;;1.48;;
45887;SDS011;31595;51.418;7.572;2023-07-20T09:23:56;1.63;;;1.20;;
45887;SDS011;31595;51.418;7.572;2023-07-20T09:26:22;2.00;;;1.00;;
45887;SDS011;31595;51.418;7.572;2023-07-20T09:28:51;2.95;;;1.10;;
45887;SDS011;31595;51.418;7.572;2023-07-20T09:31:19;1.40;;;0.98;;
45887;SDS011;31595;51.418;7.572;2023-07-20T09:33:47;1.23;;;0.85;;
45887;SDS011;31595;51.418;7.572;2023-07-20T09:36:14;1.50;;;0.93;;
45887;SDS011;31595;51.418;7.572;2023-07-20T09:38:41;1.95;;;0.85;;
45887;SDS011;31595;51.418;7.572;2023-07-20T09:41:12;1.67;;;0.75;;
45887;SDS011;31595;51.418;7.572;2023-07-20T09:43:39;2.92;;;0.77;;
45887;SDS011;31595;51.418;7.572;2023-07-20T09:46:06;2.15;;;1.00;;
45887;SDS011;31595;51.418;7.572;2023-07-20T09:48:33;1.85;;;0.70;;
45887;SDS011;31595;51.418;7.572;2023-07-20T09:51:01;2.67;;;0.70;;
45887;SDS011;31595;51.418;7.572;2023-07-20T09:53:28;1.75;;;0.75;;
45887;SDS011;31595;51.418;7.572;2023-07-20T09:55:55;6.25;;;2.22;;
45887;SDS011;31595;51.418;7.572;2023-07-20T09:58:22;15.02;;;4.95;;
45887;SDS011;31595;51.418;7.572;2023-07-20T10:00:50;9.15;;;2.38;;
45887;SDS011;31595;51.418;7.572;2023-07-20T10:05:46;2.20;;;0.90;;
45887;SDS011;31595;51.418;7.572;2023-07-20T10:08:16;1.42;;;0.90;;
45887;SDS011;31595;51.418;7.572;2023-07-20T10:10:44;1.23;;;0.60;;
45887;SDS011;31595;51.418;7.572;2023-07-20T10:13:13;1.23;;;0.70;;
45887;SDS011;31595;51.418;7.572;2023-07-20T10:15:43;1.55;;;0.60;;
45887;SDS011;31595;51.418;7.572;2023-07-20T10:18:12;1.02;;;0.60;;
45887;SDS011;31595;51.418;7.572;2023-07-20T10:20:41;2.63;;;0.88;;
45887;SDS011;31595;51.418;7.572;2023-07-20T10:23:08;37.60;;;6.07;;
45887;SDS011;31595;51.418;7.572;2023-07-20T10:25:37;1.45;;;0.88;;
45887;SDS011;31595;51.418;7.572;2023-07-20T10:28:06;0.90;;;0.57;;
45887;SDS011;31595;51.418;7.572;2023-07-20T10:30:33;1.45;;;0.65;;
45887;SDS011;31595;51.418;7.572;2023-07-20T10:33:01;1.73;;;0.50;;
45887;SDS011;31595;51.418;7.572;2023-07-20T10:35:29;1.13;;;0.52;;
45887;SDS011;31595;51.418;7.572;2023-07-20T10:37:59;1.00;;;0.63;;
45887;SDS011;31595;51.418;7.572;2023-07-20T10:40:28;1.10;;;0.70;;
45887;SDS011;31595;51.418;7.572;2023-07-20T10:43:01;1.60;;;0.70;;
45887;SDS011;31595;51.418;7.572;2023-07-20T10:48:16;1.27;;;0.70;;
45887;SDS011;31595;51.418;7.572;2023-07-20T10:50:45;0.95;;;0.60;;
45887;SDS011;31595;51.418;7.572;2023-07-20T10:53:12;1.10;;;0.60;;
45887;SDS011;31595;51.418;7.572;2023-07-20T10:55:39;1.10;;;0.50;;
45887;SDS011;31595;51.418;7.572;2023-07-20T10:58:09;1.63;;;0.80;;
45887;SDS011;31595;51.418;7.572;2023-07-20T11:00:37;1.05;;;0.55;;
45887;SDS011;31595;51.418;7.572;2023-07-20T11:03:04;1.30;;;0.70;;
45887;SDS011;31595;51.418;7.572;2023-07-20T11:05:34;1.50;;;0.77;;
45887;SDS011;31595;51.418;7.572;2023-07-20T11:08:03;0.98;;;0.40;;
45887;SDS011;31595;51.418;7.572;2023-07-20T11:10:30;0.90;;;0.57;;
45887;SDS011;31595;51.418;7.572;2023-07-20T11:15:46;1.20;;;0.70;;
45887;SDS011;31595;51.418;7.572;2023-07-20T11:18:14;1.33;;;0.60;;
45887;SDS011;31595;51.418;7.572;2023-07-20T11:20:41;1.05;;;0.68;;
45887;SDS011;31595;51.418;7.572;2023-07-20T11:23:08;1.08;;;0.73;;
45887;SDS011;31595;51.418;7.572;2023-07-20T11:25:38;1.13;;;0.63;;
45887;SDS011;31595;51.418;7.572;2023-07-20T11:28:08;1.45;;;0.88;;
45887;SDS011;31595;51.418;7.572;2023-07-20T11:30:36;1.73;;;0.75;;
45887;SDS011;31595;51.418;7.572;2023-07-20T11:33:04;1.35;;;0.70;;
45887;SDS011;31595;51.418;7.572;2023-07-20T11:35:34;1.42;;;0.70;;
45887;SDS011;31595;51.418;7.572;2023-07-20T11:38:02;1.30;;;0.60;;
45887;SDS011;31595;51.418;7.572;2023-07-20T11:40:28;1.00;;;0.57;;
45887;SDS011;31595;51.418;7.572;2023-07-20T11:42:55;1.63;;;0.67;;
45887;SDS011;31595;51.418;7.572;2023-07-20T11:45:22;1.23;;;0.80;;
45887;SDS011;31595;51.418;7.572;2023-07-20T11:47:49;1.58;;;0.70;;
45887;SDS011;31595;51.418;7.572;2023-07-20T11:50:17;1.58;;;0.60;;
45887;SDS011;31595;51.418;7.572;2023-07-20T11:52:44;1.15;;;0.68;;
45887;SDS011;31595;51.418;7.572;2023-07-20T11:55:11;0.98;;;0.68;;
45887;SDS011;31595;51.418;7.572;2023-07-20T11:57:38;1.10;;;0.80;;
45887;SDS011;31595;51.418;7.572;2023-07-20T12:00:05;1.50;;;0.80;;
45887;SDS011;31595;51.418;7.572;2023-07-20T12:02:37;1.15;;;0.60;;
45887;SDS011;31595;51.418;7.572;2023-07-20T12:05:05;1.30;;;0.70;;
45887;SDS011;31595;51.418;7.572;2023-07-20T12:07:35;2.33;;;0.93;;
45887;SDS011;31595;51.418;7.572;2023-07-20T12:10:05;1.38;;;0.90;;
45887;SDS011;31595;51.418;7.572;2023-07-20T12:12:32;2.28;;;0.82;;
45887;SDS011;31595;51.418;7.572;2023-07-20T12:15:13;1.75;;;0.98;;
45887;SDS011;31595;51.418;7.572;2023-07-20T12:17:41;1.25;;;0.90;;
45887;SDS011;31595;51.418;7.572;2023-07-20T12:20:08;1.60;;;0.95;;
45887;SDS011;31595;51.418;7.572;2023-07-20T12:22:39;1.95;;;0.90;;
45887;SDS011;31595;51.418;7.572;2023-07-20T12:25:07;1.42;;;0.95;;
45887;SDS011;31595;51.418;7.572;2023-07-20T12:27:35;1.85;;;1.08;;
45887;SDS011;31595;51.418;7.572;2023-07-20T12:30:02;1.65;;;1.02;;
45887;SDS011;31595;51.418;7.572;2023-07-20T12:32:29;1.43;;;0.87;;
45887;SDS011;31595;51.418;7.572;2023-07-20T12:34:57;1.88;;;1.00;;
45887;SDS011;31595;51.418;7.572;2023-07-20T12:37:25;1.50;;;1.00;;
45887;SDS011;31595;51.418;7.572;2023-07-20T12:39:54;1.48;;;0.85;;
45887;SDS011;31595;51.418;7.572;2023-07-20T12:44:48;2.25;;;1.02;;
45887;SDS011;31595;51.418;7.572;2023-07-20T12:47:15;1.97;;;1.10;;
45887;SDS011;31595;51.418;7.572;2023-07-20T12:49:42;1.70;;;0.90;;
45887;SDS011;31595;51.418;7.572;2023-07-20T12:52:12;1.50;;;0.90;;
45887;SDS011;31595;51.418;7.572;2023-07-20T12:54:39;2.13;;;1.17;;
45887;SDS011;31595;51.418;7.572;2023-07-20T12:57:07;1.70;;;1.05;;
45887;SDS011;31595;51.418;7.572;2023-07-20T12:59:34;1.30;;;1.05;;
45887;SDS011;31595;51.418;7.572;2023-07-20T13:02:01;1.50;;;1.10;;
45887;SDS011;31595;51.418;7.572;2023-07-20T13:04:28;1.10;;;0.80;;
45887;SDS011;31595;51.418;7.572;2023-07-20T13:06:55;2.55;;;1.00;;
45887;SDS011;31595;51.418;7.572;2023-07-20T13:11:50;2.08;;;1.10;;
45887;SDS011;31595;51.418;7.572;2023-07-20T13:14:19;1.67;;;0.80;;
45887;SDS011;31595;51.418;7.572;2023-07-20T13:16:46;1.60;;;1.00;;
45887;SDS011;31595;51.418;7.572;2023-07-20T13:19:12;2.85;;;1.17;;
45887;SDS011;31595;51.418;7.572;2023-07-20T13:21:39;1.30;;;1.00;;
45887;SDS011;31595;51.418;7.572;2023-07-20T13:24:06;2.03;;;1.10;;
45887;SDS011;31595;51.418;7.572;2023-07-20T13:26:33;2.50;;;1.00;;
45887;SDS011;31595;51.418;7.572;2023-07-20T13:29:00;2.28;;;1.00;;
45887;SDS011;31595;51.418;7.572;2023-07-20T13:31:28;2.00;;;0.88;;
45887;SDS011;31595;51.418;7.572;2023-07-20T13:36:21;1.13;;;0.80;;
45887;SDS011;31595;51.418;7.572;2023-07-20T13:38:48;1.65;;;1.08;;
45887;SDS011;31595;51.418;7.572;2023-07-20T13:41:15;1.77;;;1.10;;
45887;SDS011;31595;51.418;7.572;2023-07-20T13:43:42;2.05;;;1.00;;
45887;SDS011;31595;51.418;7.572;2023-07-20T13:46:09;1.40;;;0.90;;
45887;SDS011;31595;51.418;7.572;2023-07-20T13:48:37;2.08;;;0.75;;
45887;SDS011;31595;51.418;7.572;2023-07-20T13:51:04;1.55;;;0.70;;
45887;SDS011;31595;51.418;7.572;2023-07-20T13:53:31;1.20;;;0.80;;
45887;SDS011;31595;51.418;7.572;2023-07-20T13:55:58;1.88;;;0.90;;
45887;SDS011;31595;51.418;7.572;2023-07-20T13:58:25;1.05;;;0.70;;
45887;SDS011;31595;51.418;7.572;2023-07-20T14:00:51;1.40;;;0.80;;
45887;SDS011;31595;51.418;7.572;2023-07-20T14:03:18;1.45;;;0.80;;
45887;SDS011;31595;51.418;7.572;2023-07-20T14:05:46;1.73;;;0.93;;
45887;SDS011;31595;51.418;7.572;2023-07-20T14:08:14;1.35;;;1.00;;
45887;SDS011;31595;51.418;7.572;2023-07-20T14:10:41;1.95;;;0.90;;
45887;SDS011;31595;51.418;7.572;2023-07-20T14:13:08;2.60;;;0.98;;
45887;SDS011;31595;51.418;7.572;2023-07-20T14:15:40;1.83;;;1.25;;
45887;SDS011;31595;51.418;7.572;2023-07-20T14:18:07;2.15;;;0.80;;
45887;SDS011;31595;51.418;7.572;2023-07-20T14:20:34;2.13;;;1.10;;
45887;SDS011;31595;51.418;7.572;2023-07-20T14:23:02;1.75;;;0.85;;
45887;SDS011;31595;51.418;7.572;2023-07-20T14:25:29;2.90;;;0.90;;
45887;SDS011;31595;51.418;7.572;2023-07-20T14:27:58;1.35;;;0.80;;
45887;SDS011;31595;51.418;7.572;2023-07-20T14:30:25;3.35;;;1.00;;
45887;SDS011;31595;51.418;7.572;2023-07-20T14:32:51;2.25;;;1.00;;
45887;SDS011;31595;51.418;7.572;2023-07-20T14:35:18;3.25;;;1.02;;
45887;SDS011;31595;51.418;7.572;2023-07-20T14:37:45;1.40;;;1.00;;
45887;SDS011;31595;51.418;7.572;2023-07-20T14:40:13;1.77;;;0.95;;
45887;SDS011;31595;51.418;7.572;2023-07-20T14:42:40;1.70;;;1.00;;
45887;SDS011;31595;51.418;7.572;2023-07-20T14:45:07;2.90;;;1.20;;
45887;SDS011;31595;51.418;7.572;2023-07-20T14:47:34;1.95;;;1.00;;
45887;SDS011;31595;51.418;7.572;2023-07-20T14:50:01;1.63;;;1.00;;
45887;SDS011;31595;51.418;7.572;2023-07-20T14:52:28;1.40;;;1.00;;
45887;SDS011;31595;51.418;7.572;2023-07-20T14:54:55;1.63;;;1.00;;
45887;SDS011;31595;51.418;7.572;2023-07-20T14:57:23;1.90;;;1.00;;